createdAt,value
2018-12-07T00:01:58.397Z,100497.28
2018-12-07T00:04:27.390Z,100501.58
2018-12-07T00:06:56.535Z,100501.55
2018-12-07T00:09:25.389Z,100503.28
2018-12-07T00:11:54.995Z,100497.17
2018-12-07T00:14:23.819Z,100499.73
2018-12-07T00:16:53.067Z,100501.41
2018-12-07T00:19:23.000Z,100504.45
2018-12-07T00:21:51.828Z,100506.98
2018-12-07T00:24:20.703Z,100508.28
2018-12-07T00:26:49.532Z,100506.59
2018-12-07T00:29:18.407Z,100504.44
2018-12-07T00:31:47.247Z,100504.48
2018-12-07T00:34:16.111Z,100499.30
2018-12-07T00:36:44.919Z,100505.01
2018-12-07T00:39:13.744Z,100504.14
2018-12-07T00:41:42.651Z,100503.23
2018-12-07T00:44:11.676Z,100505.36
2018-12-07T00:46:40.447Z,100500.98
2018-12-07T00:49:09.371Z,100495.34
2018-12-07T00:51:38.573Z,100497.95
2018-12-07T00:54:07.467Z,100493.23
2018-12-07T00:56:36.671Z,100494.10
2018-12-07T00:59:05.471Z,100493.19
2018-12-07T01:01:34.435Z,100495.34
2018-12-07T01:04:03.275Z,100489.73
2018-12-07T01:06:32.436Z,100495.35
2018-12-07T01:09:01.615Z,100490.58
2018-12-07T01:11:30.470Z,100492.70
2018-12-07T01:13:59.722Z,100488.36
2018-12-07T01:16:28.566Z,100492.27
2018-12-07T01:18:57.695Z,100478.42
2018-12-07T01:21:26.720Z,100486.65
2018-12-07T01:23:55.591Z,100483.17
2018-12-07T01:26:24.444Z,100485.34
2018-12-07T01:28:53.243Z,100484.05
2018-12-07T01:31:22.287Z,100486.20
2018-12-07T01:33:51.361Z,100484.85
2018-12-07T01:36:20.239Z,100482.68
2018-12-07T01:38:49.175Z,100476.12
2018-12-07T01:41:18.341Z,100472.73
2018-12-07T01:43:47.420Z,100478.37
2018-12-07T01:46:16.628Z,100475.77
2018-12-07T01:48:45.689Z,100472.30
2018-12-07T01:51:14.636Z,100467.92
2018-12-07T01:53:43.903Z,100461.05
2018-12-07T01:56:12.907Z,100463.65
2018-12-07T01:58:42.004Z,100466.63
2018-12-07T02:01:11.099Z,100460.52
2018-12-07T02:03:39.950Z,100454.44
2018-12-07T02:06:15.612Z,100455.74
2018-12-07T02:08:44.739Z,100461.38
2018-12-07T02:11:13.628Z,100456.61
2018-12-07T02:13:42.835Z,100457.41
2018-12-07T02:16:12.032Z,100456.05
2018-12-07T02:18:41.128Z,100454.76
2018-12-07T02:21:09.917Z,100459.15
2018-12-07T02:23:39.123Z,100460.51
2018-12-07T02:26:08.004Z,100455.31
2018-12-07T02:28:37.099Z,100444.45
2018-12-07T02:31:06.346Z,100447.09
2018-12-07T02:33:35.491Z,100444.06
2018-12-07T02:36:04.901Z,100443.64
2018-12-07T02:38:34.110Z,100441.90
2018-12-07T02:41:03.296Z,100437.08
2018-12-07T02:43:32.490Z,100432.77
2018-12-07T02:46:01.631Z,100433.20
2018-12-07T02:48:30.893Z,100437.53
2018-12-07T02:50:59.924Z,100435.30
2018-12-07T02:53:29.091Z,100431.78
2018-12-07T02:55:57.976Z,100436.09
2018-12-07T02:58:27.110Z,100438.32
2018-12-07T03:00:56.081Z,100436.59
2018-12-07T03:03:24.964Z,100441.34
2018-12-07T03:05:54.081Z,100434.85
2018-12-07T03:08:22.968Z,100441.65
2018-12-07T03:10:52.148Z,100439.05
2018-12-07T03:13:20.947Z,100437.75
2018-12-07T03:15:50.373Z,100440.41
2018-12-07T03:18:30.280Z,100443.86
2018-12-07T03:20:59.895Z,100444.23
2018-12-07T03:23:29.089Z,100442.08
2018-12-07T03:25:58.178Z,100444.66
2018-12-07T03:28:27.376Z,100445.06
2018-12-07T03:30:56.631Z,100445.94
2018-12-07T03:33:25.875Z,100451.07
2018-12-07T03:35:55.079Z,100449.47
2018-12-07T03:38:23.913Z,100449.06
2018-12-07T03:40:53.037Z,100447.75
2018-12-07T03:43:21.984Z,100455.91
2018-12-07T03:45:51.063Z,100456.34
2018-12-07T03:48:20.244Z,100461.08
2018-12-07T03:50:49.351Z,100462.82
2018-12-07T03:53:18.332Z,100465.42
2018-12-07T03:55:47.225Z,100471.90
2018-12-07T03:58:16.435Z,100468.42
2018-12-07T04:00:45.527Z,100472.23
2018-12-07T04:03:14.726Z,100470.06
2018-12-07T04:05:43.811Z,100472.11
2018-12-07T04:08:13.315Z,100485.90
2018-12-07T04:10:42.527Z,100483.72
2018-12-07T04:13:11.791Z,100480.66
2018-12-07T04:15:41.101Z,100478.08
2018-12-07T04:18:10.214Z,100482.41
2018-12-07T04:20:39.103Z,100482.40
2018-12-07T04:23:08.391Z,100473.70
2018-12-07T04:25:37.507Z,100468.84
2018-12-07T04:28:06.506Z,100471.84
2018-12-07T04:30:35.600Z,100468.02
2018-12-07T04:33:04.816Z,100472.73
2018-12-07T04:35:33.996Z,100471.84
2018-12-07T04:38:03.351Z,100474.77
2018-12-07T04:40:32.496Z,100479.39
2018-12-07T04:43:01.605Z,100487.67
2018-12-07T04:45:30.804Z,100482.50
2018-12-07T04:47:59.992Z,100470.40
2018-12-07T04:50:29.341Z,100482.98
2018-12-07T04:52:58.241Z,100477.78
2018-12-07T04:55:27.373Z,100476.94
2018-12-07T04:57:58.649Z,100481.65
2018-12-07T05:00:27.824Z,100480.70
2018-12-07T05:02:56.930Z,100482.80
2018-12-07T05:05:26.525Z,100479.91
2018-12-07T05:07:55.559Z,100475.91
2018-12-07T05:10:24.392Z,100473.78
2018-12-07T05:12:53.264Z,100482.39
2018-12-07T05:15:22.704Z,100476.77
2018-12-07T05:17:52.469Z,100478.40
2018-12-07T05:20:21.329Z,100489.23
2018-12-07T05:22:50.644Z,100494.46
2018-12-07T05:25:19.664Z,100499.23
2018-12-07T05:27:49.032Z,100500.11
2018-12-07T05:30:17.994Z,100497.18
2018-12-07T05:32:47.103Z,100507.13
2018-12-07T05:35:16.288Z,100499.83
2018-12-07T05:37:45.063Z,100501.98
2018-12-07T05:40:14.198Z,100504.56
2018-12-07T05:42:43.386Z,100496.38
2018-12-07T05:45:11.947Z,100507.55
2018-12-07T05:47:40.833Z,100509.70
2018-12-07T05:50:10.056Z,100510.98
2018-12-07T05:52:39.253Z,100513.19
2018-12-07T05:55:08.964Z,100510.61
2018-12-07T05:57:38.053Z,100505.05
2018-12-07T06:00:08.785Z,100505.85
2018-12-07T06:02:37.988Z,100507.95
2018-12-07T06:05:14.491Z,100512.28
2018-12-07T06:07:43.640Z,100512.77
2018-12-07T06:10:12.846Z,100515.37
2018-12-07T06:12:42.175Z,100515.86
2018-12-07T06:15:11.584Z,100508.57
2018-12-07T06:17:40.564Z,100513.84
2018-12-07T06:20:09.663Z,100513.05
2018-12-07T06:22:38.744Z,100511.31
2018-12-07T06:25:08.082Z,100507.87
2018-12-07T06:27:37.143Z,100506.13
2018-12-07T06:30:07.051Z,100511.77
2018-12-07T06:32:36.524Z,100503.16
2018-12-07T06:35:05.855Z,100511.36
2018-12-07T06:37:36.612Z,100511.77
2018-12-07T06:40:06.190Z,100517.38
2018-12-07T06:42:35.136Z,100518.72
2018-12-07T06:45:04.408Z,100526.07
2018-12-07T06:47:33.613Z,100528.30
2018-12-07T06:50:02.800Z,100528.31
2018-12-07T06:52:32.193Z,100528.82
2018-12-07T06:55:01.496Z,100532.75
2018-12-07T06:57:30.802Z,100529.34
2018-12-07T06:59:59.652Z,100533.69
2018-12-07T07:02:28.704Z,100531.59
2018-12-07T07:04:58.180Z,100528.16
2018-12-07T07:07:27.464Z,100523.91
2018-12-07T07:09:57.395Z,100527.44
2018-12-07T07:12:26.599Z,100526.61
2018-12-07T07:14:55.798Z,100526.68
2018-12-07T07:17:24.992Z,100521.13
2018-12-07T07:19:54.094Z,100521.56
2018-12-07T07:22:23.183Z,100513.77
2018-12-07T07:24:52.247Z,100508.59
2018-12-07T07:27:21.484Z,100509.52
2018-12-07T07:29:50.609Z,100505.67
2018-12-07T07:32:19.776Z,100505.23
2018-12-07T07:34:48.608Z,100503.52
2018-12-07T07:37:17.867Z,100505.25
2018-12-07T07:39:46.785Z,100503.09
2018-12-07T07:42:16.740Z,100496.64
2018-12-07T07:44:46.344Z,100495.78
2018-12-07T07:47:15.493Z,100495.83
2018-12-07T07:49:45.183Z,100491.93
2018-12-07T07:52:14.372Z,100474.66
2018-12-07T07:54:43.981Z,100472.10
2018-12-07T07:57:13.189Z,100485.56
2018-12-07T07:59:42.459Z,100492.48
2018-12-07T08:02:11.408Z,100493.78
2018-12-07T08:04:40.891Z,100505.95
2018-12-07T08:07:10.003Z,100497.28
2018-12-07T08:09:39.175Z,100480.01
2018-12-07T08:12:08.087Z,100464.86
2018-12-07T08:14:36.956Z,100470.50
2018-12-07T08:17:06.210Z,100464.00
2018-12-07T08:19:35.420Z,100460.53
2018-12-07T08:22:04.248Z,100463.56
2018-12-07T08:24:33.899Z,100453.14
2018-12-07T08:27:03.051Z,100457.91
2018-12-07T08:29:32.151Z,100456.59
2018-12-07T08:32:01.359Z,100437.91
2018-12-07T08:34:30.548Z,100430.92
2018-12-07T08:36:59.758Z,100416.99
2018-12-07T08:39:28.950Z,100407.84
2018-12-07T08:41:57.799Z,100405.26
2018-12-07T08:44:27.116Z,100399.14
2018-12-07T08:46:56.361Z,100396.91
2018-12-07T08:49:30.387Z,100390.35
2018-12-07T08:51:59.551Z,100387.25
2018-12-07T08:54:28.740Z,100375.89
2018-12-07T08:56:57.651Z,100372.72
2018-12-07T08:59:26.864Z,100372.66
2018-12-07T09:01:55.735Z,100366.84
2018-12-07T09:04:24.825Z,100363.63
2018-12-07T09:06:54.027Z,100358.27
2018-12-07T09:09:22.923Z,100353.70
2018-12-07T09:11:52.027Z,100349.16
2018-12-07T09:14:20.856Z,100347.70
2018-12-07T09:16:49.969Z,100345.36
2018-12-07T09:19:18.887Z,100340.02
2018-12-07T09:21:48.105Z,100334.91
2018-12-07T09:24:16.927Z,100325.76
2018-12-07T09:26:46.356Z,100328.40
2018-12-07T09:29:15.476Z,100321.91
2018-12-07T09:31:44.467Z,100326.66
2018-12-07T09:34:13.308Z,100324.78
2018-12-07T09:36:42.561Z,100314.82
2018-12-07T09:39:11.714Z,100313.56
2018-12-07T09:41:40.852Z,100306.73
2018-12-07T09:44:09.675Z,100300.86
2018-12-07T09:46:38.608Z,100295.13
2018-12-07T09:49:07.732Z,100290.15
2018-12-07T09:51:36.795Z,100288.16
2018-12-07T09:54:05.938Z,100284.79
2018-12-07T09:56:35.425Z,100274.97
2018-12-07T09:59:04.511Z,100279.59
2018-12-07T10:01:33.317Z,100276.14
2018-12-07T10:04:02.864Z,100267.30
2018-12-07T10:06:32.146Z,100258.42
2018-12-07T10:09:07.767Z,100273.58
2018-12-07T10:11:36.743Z,100268.05
2018-12-07T10:14:05.652Z,100270.19
2018-12-07T10:16:34.619Z,100262.62
2018-12-07T10:19:03.742Z,100268.23
2018-12-07T10:21:32.593Z,100266.83
2018-12-07T10:24:01.708Z,100262.08
2018-12-07T10:26:30.922Z,100252.56
2018-12-07T10:29:00.336Z,100241.48
2018-12-07T10:31:29.828Z,100235.01
2018-12-07T10:33:59.152Z,100233.59
2018-12-07T10:36:34.982Z,100221.02
2018-12-07T10:39:05.323Z,100220.63
2018-12-07T10:41:34.533Z,100216.13
2018-12-07T10:44:03.484Z,100212.84
2018-12-07T10:46:32.627Z,100212.17
2018-12-07T10:49:01.655Z,100198.91
2018-12-07T10:51:30.634Z,100194.97
2018-12-07T10:53:59.451Z,100191.78
2018-12-07T10:56:28.570Z,100187.80
2018-12-07T10:58:58.074Z,100175.48
2018-12-07T11:01:32.076Z,100172.62
2018-12-07T11:04:06.553Z,100173.05
2018-12-07T11:06:40.539Z,100171.86
2018-12-07T11:09:14.861Z,100168.56
2018-12-07T11:11:52.032Z,100170.78
2018-12-07T11:15:28.219Z,100165.80
2018-12-07T11:18:02.535Z,100164.61
2018-12-07T11:20:36.711Z,100161.55
2018-12-07T11:23:11.131Z,100161.55
2018-12-07T11:25:45.372Z,100157.30
2018-12-07T11:28:19.476Z,100156.34
2018-12-07T11:30:53.513Z,100151.42
2018-12-07T11:33:44.179Z,100151.55
2018-12-07T11:36:13.913Z,100148.52
2018-12-07T11:38:43.121Z,100138.08
2018-12-07T11:41:11.986Z,100141.82
2018-12-07T11:43:40.915Z,100141.60
2018-12-07T11:46:10.495Z,100139.73
2018-12-07T11:48:39.796Z,100138.02
2018-12-07T11:51:08.987Z,100142.05
2018-12-07T11:53:37.878Z,100141.84
2018-12-07T11:56:07.088Z,100141.07
2018-12-07T11:58:36.290Z,100139.80
2018-12-07T12:01:05.243Z,100147.14
2018-12-07T12:03:35.106Z,100143.80
2018-12-07T12:06:05.046Z,100147.47
2018-12-07T12:08:33.861Z,100144.66
2018-12-07T12:11:03.410Z,100144.23
2018-12-07T12:13:33.029Z,100142.96
2018-12-07T12:16:03.980Z,100141.97
2018-12-07T12:18:33.219Z,100142.55
2018-12-07T12:21:02.283Z,100138.73
2018-12-07T12:23:31.088Z,100144.06
2018-12-07T12:26:00.170Z,100143.08
2018-12-07T12:28:29.141Z,100138.09
2018-12-07T12:30:58.466Z,100136.13
2018-12-07T12:33:27.718Z,100135.77
2018-12-07T12:35:56.917Z,100140.18
2018-12-07T12:38:26.010Z,100132.30
2018-12-07T12:40:54.845Z,100135.67
2018-12-07T12:43:24.197Z,100143.55
2018-12-07T12:45:53.708Z,100141.63
2018-12-07T12:48:22.804Z,100139.02
2018-12-07T12:50:51.811Z,100130.60
2018-12-07T12:53:21.012Z,100127.69
2018-12-07T12:55:50.094Z,100133.21
2018-12-07T12:58:19.287Z,100128.39
2018-12-07T13:00:48.400Z,100128.21
2018-12-07T13:03:17.481Z,100135.09
2018-12-07T13:05:46.704Z,100131.50
2018-12-07T13:08:15.512Z,100140.80
2018-12-07T13:10:44.344Z,100130.84
2018-12-07T13:13:13.559Z,100131.31
2018-12-07T13:15:42.655Z,100127.58
2018-12-07T13:18:11.998Z,100121.72
2018-12-07T13:20:40.887Z,100123.89
2018-12-07T13:23:09.879Z,100125.80
2018-12-07T13:25:39.450Z,100135.80
2018-12-07T13:28:08.255Z,100126.38
2018-12-07T13:30:37.848Z,100117.25
2018-12-07T13:33:07.858Z,100107.86
2018-12-07T13:35:37.755Z,100111.17
2018-12-07T13:38:07.280Z,100112.78
2018-12-07T13:40:36.327Z,100123.77
2018-12-07T13:43:05.595Z,100117.78
2018-12-07T13:45:41.156Z,100118.90
2018-12-07T13:48:10.271Z,100116.31
2018-12-07T13:50:42.144Z,100117.11
2018-12-07T13:53:11.363Z,100120.99
2018-12-07T13:55:40.977Z,100116.44
2018-12-07T13:58:10.557Z,100120.92
2018-12-07T14:00:40.005Z,100120.20
2018-12-07T14:03:08.932Z,100123.31
2018-12-07T14:05:38.073Z,100127.35
2018-12-07T14:08:07.427Z,100121.06
2018-12-07T14:10:36.636Z,100126.27
2018-12-07T14:13:05.800Z,100130.27
2018-12-07T14:15:34.955Z,100124.28
2018-12-07T14:18:04.166Z,100116.51
2018-12-07T14:20:33.503Z,100125.30
2018-12-07T14:23:02.384Z,100118.86
2018-12-07T14:25:31.764Z,100112.88
2018-12-07T14:28:01.127Z,100107.46
2018-12-07T14:30:30.330Z,100107.57
2018-12-07T14:33:00.915Z,100101.70
2018-12-07T14:35:31.501Z,100095.27
2018-12-07T14:38:01.203Z,100089.28
2018-12-07T14:40:31.419Z,100086.25
2018-12-07T14:43:00.614Z,100091.03
2018-12-07T14:45:29.670Z,100086.07
2018-12-07T14:47:59.041Z,100091.17
2018-12-07T14:50:28.289Z,100098.23
2018-12-07T14:52:57.624Z,100102.16
2018-12-07T14:55:26.879Z,100098.91
2018-12-07T14:57:56.303Z,100090.63
2018-12-07T15:00:25.629Z,100088.94
2018-12-07T15:02:54.890Z,100086.88
2018-12-07T15:05:24.179Z,100075.38
2018-12-07T15:07:53.511Z,100077.34
2018-12-07T15:10:22.736Z,100074.41
2018-12-07T15:12:52.127Z,100074.44
2018-12-07T15:15:21.479Z,100072.52
2018-12-07T15:17:50.711Z,100079.12
2018-12-07T15:20:20.094Z,100074.17
2018-12-07T15:22:49.182Z,100076.03
2018-12-07T15:25:18.374Z,100080.43
2018-12-07T15:27:48.003Z,100082.15
2018-12-07T15:30:17.557Z,100094.39
2018-12-07T15:32:46.504Z,100092.70
2018-12-07T15:35:15.430Z,100099.37
2018-12-07T15:37:45.014Z,100099.53
2018-12-07T15:40:15.293Z,100097.71
2018-12-07T15:42:45.090Z,100093.89
2018-12-07T15:45:15.283Z,100094.75
2018-12-07T15:47:44.878Z,100094.39
2018-12-07T15:50:14.620Z,100101.81
2018-12-07T15:52:44.071Z,100095.85
2018-12-07T15:55:13.207Z,100094.63
2018-12-07T15:57:42.347Z,100096.98
2018-12-07T16:00:12.129Z,100103.87
2018-12-07T16:02:41.456Z,100108.26
2018-12-07T16:05:10.727Z,100102.03
2018-12-07T16:07:40.069Z,100102.62
2018-12-07T16:10:09.631Z,100097.54
2018-12-07T16:12:39.174Z,100093.63
2018-12-07T16:15:08.921Z,100094.66
2018-12-07T16:17:37.801Z,100093.78
2018-12-07T16:20:11.256Z,100096.92
2018-12-07T16:22:40.335Z,100098.81
2018-12-07T16:25:09.695Z,100098.05
2018-12-07T16:27:39.147Z,100101.97
2018-12-07T16:30:10.630Z,100108.75
2018-12-07T16:32:39.729Z,100108.36
2018-12-07T16:35:09.109Z,100106.72
2018-12-07T16:37:38.646Z,100101.42
2018-12-07T16:40:09.406Z,100098.31
2018-12-07T16:42:38.605Z,100100.92
2018-12-07T16:45:08.035Z,100097.00
2018-12-07T16:47:38.249Z,100108.63
2018-12-07T16:50:08.472Z,100101.23
2018-12-07T16:52:37.667Z,100083.84
2018-12-07T16:55:07.103Z,100079.01
2018-12-07T16:57:36.024Z,100075.20
2018-12-07T17:00:05.851Z,100066.92
2018-12-07T17:02:35.637Z,100057.82
2018-12-07T17:05:05.879Z,100063.93
2018-12-07T17:07:34.876Z,100063.48
2018-12-07T17:10:04.246Z,100079.64
2018-12-07T17:12:33.676Z,100079.34
2018-12-07T17:15:03.381Z,100076.28
2018-12-07T17:17:32.700Z,100074.01
2018-12-07T17:20:01.812Z,100069.65
2018-12-07T17:22:31.325Z,100072.78
2018-12-07T17:25:00.563Z,100072.78
2018-12-07T17:27:29.836Z,100067.28
2018-12-07T17:29:59.093Z,100065.27
2018-12-07T17:32:28.970Z,100070.44
2018-12-07T17:34:58.035Z,100069.61
2018-12-07T17:37:27.199Z,100069.13
2018-12-07T17:39:56.115Z,100061.62
2018-12-07T17:42:29.515Z,100060.36
2018-12-07T17:44:56.482Z,100057.86
2018-12-07T17:47:25.960Z,100060.83
2018-12-07T17:49:55.309Z,100062.53
2018-12-07T17:52:25.265Z,100062.25
2018-12-07T17:54:54.799Z,100058.84
2018-12-07T17:57:25.432Z,100054.96
2018-12-07T17:59:54.726Z,100054.71
2018-12-07T18:02:24.121Z,100057.51
2018-12-07T18:04:53.757Z,100051.94
2018-12-07T18:07:23.069Z,100048.63
2018-12-07T18:09:52.276Z,100045.16
2018-12-07T18:12:21.492Z,100031.80
2018-12-07T18:14:50.802Z,100026.58
2018-12-07T18:17:19.803Z,100027.09
2018-12-07T18:19:48.874Z,100026.27
2018-12-07T18:22:18.147Z,100030.74
2018-12-07T18:24:47.384Z,100038.20
2018-12-07T18:27:16.659Z,100032.55
2018-12-07T18:29:45.650Z,100043.84
2018-12-07T18:32:15.065Z,100045.98
2018-12-07T18:34:44.162Z,100051.14
2018-12-07T18:37:13.409Z,100050.20
2018-12-07T18:39:42.584Z,100047.61
2018-12-07T18:42:11.913Z,100042.03
2018-12-07T18:44:41.012Z,100038.55
2018-12-07T18:47:10.374Z,100041.59
2018-12-07T18:49:39.707Z,100040.75
2018-12-07T18:52:09.065Z,100039.05
2018-12-07T18:54:39.111Z,100034.35
2018-12-07T18:57:08.479Z,100032.38
2018-12-07T18:59:37.937Z,100035.45
2018-12-07T19:02:07.266Z,100046.38
2018-12-07T19:04:36.459Z,100037.23
2018-12-07T19:07:05.736Z,100030.80
2018-12-07T19:09:34.895Z,100033.97
2018-12-07T19:12:04.180Z,100030.07
2018-12-07T19:14:33.519Z,100028.86
2018-12-07T19:17:02.431Z,100031.06
2018-12-07T19:19:31.433Z,100028.88
2018-12-07T19:22:00.568Z,100023.22
2018-12-07T19:24:29.722Z,100021.59
2018-12-07T19:26:58.825Z,100028.19
2018-12-07T19:29:28.737Z,100028.59
2018-12-07T19:31:57.782Z,100030.34
2018-12-07T19:34:26.949Z,100026.86
2018-12-07T19:36:56.294Z,100027.73
2018-12-07T19:39:25.356Z,100028.30
2018-12-07T19:41:54.206Z,100024.45
2018-12-07T19:44:23.552Z,100020.52
2018-12-07T19:46:53.107Z,100021.83
2018-12-07T19:49:22.656Z,100018.32
2018-12-07T19:51:51.887Z,100010.95
2018-12-07T19:54:21.285Z,99999.75
2018-12-07T19:56:50.396Z,99997.52
2018-12-07T19:59:19.589Z,100000.55
2018-12-07T20:01:48.919Z,99997.09
2018-12-07T20:04:18.980Z,99987.48
2018-12-07T20:06:48.242Z,99988.84
2018-12-07T20:09:17.754Z,99983.23
2018-12-07T20:11:46.896Z,99975.11
2018-12-07T20:14:16.644Z,99972.45
2018-12-07T20:16:45.921Z,99971.13
2018-12-07T20:19:15.786Z,99972.51
2018-12-07T20:21:46.314Z,99970.37
2018-12-07T20:24:16.072Z,99966.46
2018-12-07T20:26:45.666Z,99965.13
2018-12-07T20:29:15.198Z,99963.70
2018-12-07T20:31:44.450Z,99960.66
2018-12-07T20:34:13.707Z,99953.24
2018-12-07T20:36:42.914Z,99959.34
2018-12-07T20:39:11.956Z,99956.33
2018-12-07T20:41:41.128Z,99959.34
2018-12-07T20:44:10.106Z,99960.22
2018-12-07T20:46:39.260Z,99961.15
2018-12-07T20:49:08.231Z,99962.41
2018-12-07T20:51:38.026Z,99957.25
2018-12-07T20:54:07.457Z,99956.83
2018-12-07T20:56:36.491Z,99953.31
2018-12-07T20:59:05.814Z,99953.26
2018-12-07T21:01:35.172Z,99944.16
2018-12-07T21:04:40.431Z,99936.00
2018-12-07T21:07:43.871Z,99933.40
2018-12-07T21:11:27.050Z,99931.71
2018-12-07T21:14:17.711Z,99931.36
2018-12-07T21:17:01.568Z,99932.23
2018-12-07T21:19:31.057Z,99925.73
2018-12-07T21:22:00.338Z,99925.36
2018-12-07T21:24:29.802Z,99931.48
2018-12-07T21:26:58.983Z,99928.94
2018-12-07T21:29:27.834Z,99925.87
2018-12-07T21:31:59.081Z,99919.41
2018-12-07T21:34:39.916Z,99911.18
2018-12-07T21:37:08.967Z,99925.14
2018-12-07T21:39:44.567Z,99919.84
2018-12-07T21:42:14.078Z,99929.41
2018-12-07T21:44:43.230Z,99925.05
2018-12-07T21:47:12.448Z,99922.01
2018-12-07T21:49:50.201Z,99923.72
2018-12-07T21:52:26.173Z,99914.61
2018-12-07T21:54:55.591Z,99916.80
2018-12-07T21:57:24.903Z,99909.98
2018-12-07T21:59:54.400Z,99901.30
2018-12-07T22:02:23.858Z,99894.31
2018-12-07T22:04:53.145Z,99892.22
2018-12-07T22:07:22.626Z,99896.14
2018-12-07T22:09:51.746Z,99889.25
2018-12-07T22:12:20.831Z,99892.30
2018-12-07T22:14:49.717Z,99877.19
2018-12-07T22:17:19.324Z,99876.34
2018-12-07T22:19:48.718Z,99871.56
2018-12-07T22:22:18.154Z,99868.95
2018-12-07T22:24:47.975Z,99867.66
2018-12-07T22:27:17.230Z,99866.36
2018-12-07T22:29:46.308Z,99862.48
2018-12-07T22:32:15.319Z,99865.93
2018-12-07T22:34:45.123Z,99862.12
2018-12-07T22:37:14.301Z,99861.65
2018-12-07T22:39:43.576Z,99859.09
2018-12-07T22:42:13.372Z,99860.86
2018-12-07T22:44:43.010Z,99854.38
2018-12-07T22:47:12.563Z,99841.42
2018-12-07T22:49:42.632Z,99839.69
2018-12-07T22:52:11.756Z,99839.28
2018-12-07T22:54:40.947Z,99839.24
2018-12-07T22:57:09.974Z,99839.70
2018-12-07T22:59:39.344Z,99837.14
2018-12-07T23:02:08.280Z,99833.70
2018-12-07T23:04:37.139Z,99834.98
2018-12-07T23:07:06.340Z,99835.88
2018-12-07T23:09:35.395Z,99835.91
2018-12-07T23:12:04.515Z,99830.72
2018-12-07T23:14:33.406Z,99828.97
2018-12-07T23:17:02.681Z,99824.67
2018-12-07T23:19:31.808Z,99825.16
2018-12-07T23:22:00.788Z,99824.70
2018-12-07T23:24:30.163Z,99828.63
2018-12-07T23:26:59.057Z,99818.70
2018-12-07T23:29:28.158Z,99807.89
2018-12-07T23:31:56.968Z,99816.57
2018-12-07T23:34:26.131Z,99811.41
2018-12-07T23:36:55.319Z,99813.13
2018-12-07T23:39:24.228Z,99817.45
2018-12-07T23:41:54.020Z,99803.63
2018-12-07T23:44:23.132Z,99807.95
2018-12-07T23:46:52.513Z,99802.38
2018-12-07T23:49:21.764Z,99815.33
2018-12-07T23:51:52.695Z,99808.80
2018-12-07T23:54:22.560Z,99823.50
2018-12-07T23:56:51.357Z,99819.21
2018-12-07T23:59:20.297Z,99817.52
